Terminal Aerodrome Forecast
Issued by NWS Austin/San Antonio, TX

Home | Current Version | Previous Version | Text Only | Print | Product List | Glossary On
Versions: 1 2 3 4 5 6 7 8 9 10 11 12 13 14 15 16 17 18 19 20 21
578
FTUS44 KEWX 110358 AAB
TAFSAT
TAF AMD
KSAT 110358Z 1104/1206 00000KT 3/4SM -DZ BR OVC004
     FM111400 24005KT P6SM OVC008
     FM111800 23010KT P6SM BKN012
     FM112300 21005KT P6SM SCT030
     FM120300 20006KT P6SM BKN012=

USA.gov is the U.S. government's official web portal to all federal, state and local government web resources and services.